Time;durP1;ratioP1;P1;durP2;ratioP2;P2;SDS_P1;SDS_P2;PMS_P1;PMS_P2;Temp;Humidity;BMP_temperature;BMP_pressure;BME280_temperature;BME280_humidity;BME280_pressure;Samples;Min_cycle;Max_cycle;Signal;HPM_P1;HPM_P2
2021/12/20 00:02:25;;;;;;;23.58;12.43;;;-1.50;99.90;;;;;;6193536;28;20068;-80
2021/12/20 00:05:26;;;;;;;20.73;11.05;;;;;;;;;;6193528;28;20026;-80
2021/12/20 00:08:28;;;;;;;16.75;10.80;;;;;;;;;;6226143;28;20072;-81
2021/12/20 00:11:29;;;;;;;18.60;9.93;;;;;;;;;;6215354;28;20041;-80
2021/12/20 00:14:30;;;;;;;20.05;10.10;;;-1.50;99.90;;;;;;6225862;28;20491;-80
2021/12/20 00:17:30;;;;;;;18.02;10.30;;;-1.20;99.90;;;;;;6199299;28;20163;-80
2021/12/20 00:20:31;;;;;;;25.95;11.15;;;;;;;;;;6209533;28;20030;-81
2021/12/20 00:23:32;;;;;;;15.52;10.20;;;-1.40;99.90;;;;;;6249521;28;20491;-80
2021/12/20 00:26:33;;;;;;;15.07;9.43;;;;;;;;;;6233063;28;20036;-79
2021/12/20 00:29:35;;;;;;;23.35;10.93;;;-1.70;99.90;;;;;;6233587;28;20025;-80
2021/12/20 00:32:35;;;;;;;21.83;10.82;;;-1.60;99.90;;;;;;6232943;28;20110;-80
2021/12/20 00:35:36;;;;;;;15.95;10.18;;;;;;;;;;6216214;28;20045;-83
2021/12/20 00:41:57;;;;;;;23.52;11.85;;;;;;;;;;6243063;28;20133;-80
2021/12/20 00:44:57;;;;;;;16.08;10.07;;;-1.60;99.90;;;;;;6209171;28;20116;-81
2021/12/20 00:47:59;;;;;;;20.40;10.18;;;;;;;;;;6244132;28;20032;-80
2021/12/20 00:50:59;;;;;;;19.10;10.30;;;;;;;;;;6232982;28;20566;-81
2021/12/20 00:54:00;;;;;;;13.93;8.85;;;;;;;;;;6219451;28;20025;-82
2021/12/20 00:57:01;;;;;;;22.42;10.70;;;-1.80;99.90;;;;;;6227859;28;20029;-81
2021/12/20 01:00:04;;;;;;;16.42;8.95;;;-1.60;99.90;;;;;;6232898;28;20463;-81
2021/12/20 01:03:06;;;;;;;18.05;9.43;;;;;;;;;;6252374;28;20037;-81
2021/12/20 01:06:06;;;;;;;17.85;8.30;;;;;;;;;;6237247;28;20068;-81
2021/12/20 01:09:08;;;;;;;31.42;9.20;;;;;;;;;;6213840;28;20531;-81
2021/12/20 01:12:16;;;;;;;14.50;9.38;;;;;;;;;;6213716;28;20391;-81
2021/12/20 01:15:21;;;;;;;19.67;8.98;;;-1.70;99.90;;;;;;6247845;28;20021;-79
2021/12/20 01:18:22;;;;;;;13.93;8.50;;;;;;;;;;6246030;28;20086;-81
2021/12/20 01:21:23;;;;;;;12.98;8.68;;;;;;;;;;6232145;28;20099;-81
2021/12/20 01:24:24;;;;;;;14.75;8.73;;;;;;;;;;6230471;28;20379;-80
2021/12/20 01:27:24;;;;;;;12.70;8.30;;;-1.60;99.90;;;;;;6263723;28;20028;-79
2021/12/20 01:30:26;;;;;;;12.80;8.00;;;;;;;;;;6213305;28;20525;-80
2021/12/20 01:33:26;;;;;;;14.68;8.82;;;-1.70;99.90;;;;;;6229494;28;20056;-79
2021/12/20 01:36:27;;;;;;;14.38;9.55;;;;;;;;;;6204893;28;20058;-79
2021/12/20 01:39:28;;;;;;;15.88;9.75;;;;;;;;;;6216831;28;20025;-81
2021/12/20 01:42:32;;;;;;;13.25;8.63;;;-1.70;99.90;;;;;;6244577;28;20563;-80
2021/12/20 01:45:33;;;;;;;14.43;9.20;;;;;;;;;;6189533;28;20452;-80
2021/12/20 01:48:35;;;;;;;15.30;9.07;;;;;;;;;;6221218;28;20025;-79
2021/12/20 01:54:37;;;;;;;13.80;8.40;;;-1.30;99.90;;;;;;6221112;28;20033;-81
2021/12/20 01:57:38;;;;;;;13.57;9.02;;;-1.70;99.90;;;;;;6221071;28;20030;-81
2021/12/20 02:01:01;;;;;;;12.65;8.70;;;;;;;;;;6204695;28;20046;-80
2021/12/20 02:04:03;;;;;;;15.88;8.80;;;;;;;;;;6243529;28;20040;-82
2021/12/20 02:07:03;;;;;;;12.15;7.97;;;-1.60;99.90;;;;;;6231813;28;20029;-80
2021/12/20 02:10:04;;;;;;;13.70;9.00;;;-1.80;99.90;;;;;;6191670;28;20439;-80
2021/12/20 02:13:05;;;;;;;12.88;8.50;;;-1.50;99.90;;;;;;6202987;28;20032;-80
2021/12/20 02:16:06;;;;;;;13.82;8.80;;;;;;;;;;6204622;28;20025;-80
2021/12/20 02:19:09;;;;;;;14.38;9.13;;;-1.60;99.90;;;;;;6221854;28;20025;-81
2021/12/20 02:22:10;;;;;;;16.10;8.55;;;-1.90;99.90;;;;;;6220488;28;20062;-80
2021/12/20 02:25:11;;;;;;;15.35;9.02;;;;;;;;;;6187919;28;20030;-79
2021/12/20 02:28:13;;;;;;;12.57;7.65;;;-1.70;99.90;;;;;;6234556;28;20025;-79
2021/12/20 02:37:33;;;;;;;11.93;8.38;;;-1.80;99.90;;;;;;6243906;28;20057;-79
2021/12/20 02:40:34;;;;;;;15.20;8.60;;;-2.00;99.90;;;;;;6237918;28;20088;-80
2021/12/20 02:43:36;;;;;;;14.82;9.25;;;-1.80;99.90;;;;;;6187409;28;20384;-79
2021/12/20 02:49:41;;;;;;;15.02;9.60;;;-1.70;99.90;;;;;;6203870;28;20057;-80
2021/12/20 02:52:42;;;;;;;15.17;8.40;;;-1.90;99.90;;;;;;6231541;28;20076;-78
2021/12/20 02:55:43;;;;;;;12.55;8.40;;;;;;;;;;6203107;28;20038;-80
2021/12/20 02:58:44;;;;;;;15.40;9.40;;;;;;;;;;6222756;28;20030;-78
2021/12/20 03:01:51;;;;;;;14.82;8.85;;;-1.80;99.90;;;;;;6219627;28;20480;-80
2021/12/20 03:04:52;;;;;;;11.18;7.57;;;;;;;;;;6220293;28;20033;-80
2021/12/20 03:07:53;;;;;;;14.18;8.50;;;;;;;;;;6230798;28;20333;-79
2021/12/20 03:10:55;;;;;;;13.43;8.45;;;-1.60;99.90;;;;;;6219290;28;20034;-80
2021/12/20 03:14:07;;;;;;;13.15;7.97;;;-2.00;99.90;;;;;;6230544;28;20034;-79
2021/12/20 03:17:07;;;;;;;13.52;8.00;;;-1.90;99.90;;;;;;6227591;28;20131;-80
2021/12/20 03:20:08;;;;;;;12.43;8.20;;;-1.60;99.90;;;;;;6209367;28;20036;-79
2021/12/20 03:23:08;;;;;;;13.27;8.25;;;-1.70;99.90;;;;;;6226068;28;20049;-79
2021/12/20 03:26:09;;;;;;;12.38;8.30;;;;;;;;;;6214946;28;20621;-79
2021/12/20 03:29:11;;;;;;;12.82;8.52;;;;;;;;;;6218989;28;20537;-80
2021/12/20 03:32:12;;;;;;;13.73;8.15;;;;;;;;;;6233315;28;20025;-79
2021/12/20 03:35:13;;;;;;;14.63;9.07;;;;;;;;;;6248591;28;20080;-80
2021/12/20 03:38:14;;;;;;;13.70;9.05;;;;;;;;;;6250463;28;20035;-81
2021/12/20 03:41:15;;;;;;;15.63;9.32;;;;;;;;;;6250210;28;20036;-80
2021/12/20 03:44:16;;;;;;;13.45;8.88;;;;;;;;;;6250145;28;20173;-79
2021/12/20 03:47:17;;;;;;;14.30;9.02;;;;;;;;;;6233815;28;20059;-81
2021/12/20 03:50:18;;;;;;;13.40;9.27;;;;;;;;;;6250774;28;20030;-79
2021/12/20 03:53:19;;;;;;;14.07;9.18;;;-1.80;99.90;;;;;;6231275;28;20079;-79
2021/12/20 03:56:19;;;;;;;14.95;8.68;;;-2.10;99.90;;;;;;6233650;28;20044;-80
2021/12/20 03:59:20;;;;;;;13.07;8.68;;;;;;;;;;6210675;28;20061;-80
2021/12/20 04:02:22;;;;;;;15.27;9.90;;;-2.10;99.90;;;;;;6244157;28;20411;-79
2021/12/20 04:05:23;;;;;;;13.27;8.83;;;;;;;;;;6193886;28;20467;-79
2021/12/20 04:08:23;;;;;;;14.73;8.73;;;-2.20;99.90;;;;;;6235909;28;20036;-79
2021/12/20 04:11:24;;;;;;;14.07;8.80;;;-2.10;99.90;;;;;;6249971;28;20033;-81
2021/12/20 04:14:25;;;;;;;14.57;8.50;;;-2.10;99.90;;;;;;6233290;28;20029;-80
2021/12/20 04:17:25;;;;;;;13.45;8.90;;;-2.10;99.90;;;;;;6249787;28;20053;-81
2021/12/20 04:20:26;;;;;;;15.95;8.80;;;-2.40;99.90;;;;;;6216564;28;20562;-80
2021/12/20 04:23:27;;;;;;;13.02;8.93;;;;;;;;;;6216629;28;20021;-81
2021/12/20 04:26:28;;;;;;;13.85;9.98;;;;;;;;;;6249232;28;20025;-80
2021/12/20 04:29:29;;;;;;;14.15;9.43;;;-2.10;99.90;;;;;;6233314;28;20025;-80
2021/12/20 04:32:30;;;;;;;13.40;8.27;;;-2.30;99.90;;;;;;6233050;28;21197;-81
2021/12/20 04:35:31;;;;;;;12.07;7.90;;;;;;;;;;6248737;28;20049;-80
2021/12/20 04:38:32;;;;;;;13.00;8.55;;;;;;;;;;6232862;28;20028;-79
2021/12/20 04:41:33;;;;;;;12.70;8.30;;;-2.30;99.90;;;;;;6254613;28;20036;-79
2021/12/20 04:44:34;;;;;;;12.40;8.80;;;-2.50;99.90;;;;;;6237719;28;20029;-80
2021/12/20 04:47:35;;;;;;;13.35;8.68;;;;;;;;;;6254236;28;20017;-79
2021/12/20 04:50:36;;;;;;;12.45;8.55;;;-2.10;99.90;;;;;;6271949;28;20131;-80
2021/12/20 04:53:37;;;;;;;13.60;8.40;;;-2.10;99.90;;;;;;6253981;28;20032;-80
2021/12/20 04:56:38;;;;;;;10.73;7.50;;;;;;;;;;6208087;28;20033;-79
2021/12/20 04:59:39;;;;;;;12.95;7.70;;;;;;;;;;6213868;28;20029;-80
2021/12/20 05:02:40;;;;;;;10.20;7.50;;;;;;;;;;6219011;28;20045;-80
2021/12/20 05:05:40;;;;;;;10.88;7.50;;;-2.20;99.90;;;;;;6213981;28;20626;-81
2021/12/20 05:08:50;;;;;;;12.95;7.18;;;;;;;;;;6216818;28;20036;-79
2021/12/20 05:11:58;;;;;;;12.07;8.00;;;;;;;;;;6255099;28;20028;-79
2021/12/20 05:14:59;;;;;;;12.23;7.70;;;;;;;;;;6238453;28;20021;-80
2021/12/20 05:18:00;;;;;;;12.90;8.30;;;;;;;;;;6253354;28;20467;-80
2021/12/20 05:21:01;;;;;;;13.80;8.38;;;;;;;;;;6271158;28;20021;-79
2021/12/20 05:24:02;;;;;;;11.75;7.93;;;-2.40;99.90;;;;;;6241435;28;20036;-80
2021/12/20 05:27:03;;;;;;;12.63;7.68;;;-2.40;99.90;;;;;;6226286;28;20076;-79
2021/12/20 05:30:07;;;;;;;11.48;7.80;;;-1.30;99.90;;;;;;6220529;28;20047;-79
2021/12/20 05:33:08;;;;;;;11.95;8.98;;;;;;;;;;6225937;28;20029;-79
2021/12/20 05:36:09;;;;;;;42.83;21.50;;;;;;;;;;6224346;28;20089;-79
2021/12/20 05:39:10;;;;;;;15.35;9.95;;;;;;;;;;6228110;28;20452;-81
2021/12/20 05:42:11;;;;;;;14.80;9.88;;;;;;;;;;6223511;28;20056;-82
2021/12/20 05:45:12;;;;;;;12.95;9.05;;;;;;;;;;6212540;28;20480;-81
2021/12/20 05:48:13;;;;;;;14.35;8.75;;;;;;;;;;6220407;28;20026;-81
2021/12/20 05:51:14;;;;;;;11.25;8.00;;;-2.50;99.90;;;;;;6206361;28;20061;-80
2021/12/20 05:54:15;;;;;;;10.85;7.40;;;;;;;;;;6209035;28;20029;-84
2021/12/20 05:57:16;;;;;;;12.23;8.18;;;;;;;;;;6230434;28;20036;-86
2021/12/20 06:00:18;;;;;;;13.13;8.38;;;-2.70;99.90;;;;;;6229827;28;20071;-82
2021/12/20 06:03:19;;;;;;;10.70;7.13;;;;;;;;;;6191398;28;20844;-83
2021/12/20 06:06:20;;;;;;;12.13;7.60;;;;;;;;;;6204532;28;20037;-84
2021/12/20 06:09:21;;;;;;;12.13;7.75;;;-2.40;99.90;;;;;;6225309;28;20427;-83
2021/12/20 06:12:22;;;;;;;12.30;8.20;;;-2.70;99.90;;;;;;6210893;28;20072;-84
2021/12/20 06:15:23;;;;;;;11.90;8.25;;;;;;;;;;6206654;28;20392;-85
2021/12/20 06:18:24;;;;;;;9.45;7.88;;;;;;;;;;6210718;28;20030;-85
2021/12/20 06:21:25;;;;;;;13.32;9.20;;;;;;;;;;6207522;28;20045;-82
2021/12/20 06:24:25;;;;;;;11.80;7.45;;;-2.90;99.90;;;;;;6204409;28;20053;-82
2021/12/20 06:27:26;;;;;;;10.23;7.22;;;;;;;;;;6224214;28;20069;-83
2021/12/20 06:30:27;;;;;;;12.32;7.80;;;-3.00;99.90;;;;;;6218184;28;20024;-82
2021/12/20 06:33:27;;;;;;;11.27;7.68;;;-2.90;99.90;;;;;;6207680;28;20040;-83
2021/12/20 06:36:30;;;;;;;11.50;9.35;;;;;;;;;;6204342;28;20145;-82
2021/12/20 06:39:31;;;;;;;12.45;9.05;;;;;;;;;;6228588;28;20025;-87
2021/12/20 06:42:32;;;;;;;12.93;8.77;;;;;;;;;;6223192;28;20112;-80
2021/12/20 06:45:34;;;;;;;11.93;7.85;;;-3.10;99.90;;;;;;6211598;28;20048;-81
2021/12/20 06:48:35;;;;;;;11.68;7.75;;;-3.10;99.90;;;;;;6219089;28;20486;-80
2021/12/20 06:51:40;;;;;;;11.50;8.00;;;-3.10;99.90;;;;;;6219450;28;20080;-82
2021/12/20 06:54:41;;;;;;;12.80;7.95;;;;;;;;;;6205109;28;20034;-84
2021/12/20 06:57:42;;;;;;;12.57;7.47;;;;;;;;;;6241547;28;20037;-83
2021/12/20 07:00:42;;;;;;;11.60;7.40;;;-3.20;99.90;;;;;;6242626;28;20503;-80
2021/12/20 07:03:43;;;;;;;12.00;8.30;;;;;;;;;;6243140;28;20095;-81
2021/12/20 07:06:44;;;;;;;15.93;9.23;;;;;;;;;;6227408;28;20022;-80
2021/12/20 07:09:45;;;;;;;12.05;8.18;;;-3.00;99.90;;;;;;6230534;28;20053;-80
2021/12/20 07:12:46;;;;;;;9.85;6.60;;;-3.00;99.90;;;;;;6203022;28;20112;-80
2021/12/20 07:15:46;;;;;;;12.18;7.95;;;-2.90;99.90;;;;;;6203120;28;20034;-80
2021/12/20 07:18:47;;;;;;;11.88;7.70;;;;;;;;;;6221376;28;20025;-80
2021/12/20 07:21:48;;;;;;;12.68;7.57;;;;;;;;;;6242433;28;20043;-80
2021/12/20 07:24:49;;;;;;;14.18;9.13;;;-3.30;99.90;;;;;;6242301;28;20057;-81
2021/12/20 07:27:50;;;;;;;14.70;8.95;;;;;;;;;;6226392;28;20025;-81
2021/12/20 07:30:51;;;;;;;16.13;9.75;;;;;;;;;;6229301;28;20030;-80
2021/12/20 07:33:52;;;;;;;11.93;8.63;;;;;;;;;;6230023;28;20027;-79
2021/12/20 07:36:53;;;;;;;17.75;10.73;;;;;;;;;;6256518;28;20061;-82
2021/12/20 07:39:55;;;;;;;20.83;11.90;;;;;;;;;;6242615;28;20116;-81
2021/12/20 07:42:56;;;;;;;23.27;13.35;;;;;;;;;;6217823;28;20037;-82
2021/12/20 07:45:57;;;;;;;28.67;16.33;;;;;;;;;;6253263;28;20511;-80
2021/12/20 07:48:58;;;;;;;27.63;14.23;;;;;;;;;;6226777;28;20456;-79
2021/12/20 07:51:59;;;;;;;33.15;19.00;;;;;;;;;;6209222;28;20040;-80
2021/12/20 07:55:00;;;;;;;29.58;18.75;;;;;;;;;;6246334;28;20056;-81
2021/12/20 07:58:01;;;;;;;45.10;23.63;;;;;;;;;;6232923;28;20043;-80
2021/12/20 08:01:04;;;;;;;19.77;12.98;;;-2.50;99.90;;;;;;6233081;28;20124;-79
2021/12/20 08:04:07;;;;;;;11.48;8.10;;;;;;;;;;6210120;28;20022;-81
2021/12/20 08:07:07;;;;;;;11.65;8.50;;;-2.50;99.90;;;;;;6235136;28;20021;-80
2021/12/20 08:10:08;;;;;;;20.67;11.95;;;-2.60;99.90;;;;;;6250118;28;20493;-81
2021/12/20 08:13:11;;;;;;;16.13;10.32;;;;;;;;;;6248774;28;20036;-80
2021/12/20 08:16:15;;;;;;;15.45;9.70;;;-2.70;99.90;;;;;;6260208;28;20083;-79
2021/12/20 08:19:16;;;;;;;11.95;8.35;;;-2.20;99.90;;;;;;6209601;28;20361;-80
2021/12/20 08:22:16;;;;;;;13.38;8.90;;;-2.10;99.90;;;;;;6225053;28;20087;-80
2021/12/20 08:25:18;;;;;;;12.63;8.02;;;-1.60;99.90;;;;;;6209984;28;20452;-80
2021/12/20 08:28:19;;;;;;;12.13;8.23;;;-2.00;99.90;;;;;;6208608;28;20431;-81
2021/12/20 08:31:20;;;;;;;15.73;12.13;;;;;;;;;;6232772;28;20093;-82
2021/12/20 08:34:20;;;;;;;11.30;8.70;;;;;;;;;;6229401;28;20039;-82
2021/12/20 08:37:21;;;;;;;11.27;8.88;;;-1.00;99.90;;;;;;6232823;28;20048;-82
2021/12/20 08:40:22;;;;;;;12.55;9.02;;;-0.90;99.90;;;;;;6249178;28;20035;-79
2021/12/20 08:43:23;;;;;;;11.20;7.68;;;;;;;;;;6249143;28;20087;-81
2021/12/20 08:46:24;;;;;;;11.63;8.10;;;;;;;;;;6247823;28;20025;-83
2021/12/20 08:49:25;;;;;;;13.05;7.95;;;0.10;99.90;;;;;;6225474;28;20030;-79
2021/12/20 08:52:26;;;;;;;12.73;8.27;;;;;;;;;;6212537;28;20032;-84
2021/12/20 08:55:27;;;;;;;15.73;8.80;;;0.80;99.90;;;;;;6208532;28;20053;-84
2021/12/20 08:58:28;;;;;;;11.77;8.32;;;;;;;;;;6192503;28;20033;-85
2021/12/20 09:01:29;;;;;;;12.07;7.90;;;;;;;;;;6210899;28;20025;-84
2021/12/20 09:05:24;;;;;;;13.13;7.78;;;3.90;99.90;;;;;;6232437;28;20029;-84
2021/12/20 09:08:25;;;;;;;10.70;7.95;;;;;;;;;;6126181;29;20130;-83
2021/12/20 09:11:26;;;;;;;10.60;7.65;;;4.30;99.90;;;;;;6126061;28;20038;-84
2021/12/20 09:14:28;;;;;;;9.30;7.90;;;4.60;99.90;;;;;;6104111;29;20111;-82
2021/12/20 09:17:28;;;;;;;9.93;7.60;;;5.90;99.90;;;;;;6087258;29;21451;-82
2021/12/20 09:20:30;;;;;;;8.63;6.80;;;;;;;;;;6094251;29;20237;-83
2021/12/20 09:23:32;;;;;;;10.25;7.72;;;5.80;99.90;;;;;;6115496;28;20123;-83
2021/12/20 09:26:33;;;;;;;10.50;7.28;;;6.30;99.90;;;;;;6093383;29;20031;-82
2021/12/20 09:29:33;;;;;;;10.52;8.25;;;6.20;99.90;;;;;;6126326;29;20478;-82
2021/12/20 09:32:34;;;;;;;9.27;7.32;;;6.60;99.90;;;;;;6130385;29;20085;-82
2021/12/20 09:35:35;;;;;;;9.20;7.28;;;;;;;;;;6108069;29;20517;-82
2021/12/20 09:38:36;;;;;;;10.25;7.30;;;5.90;99.90;;;;;;6107461;29;20030;-82
2021/12/20 09:44:43;;;;;;;10.13;7.35;;;5.50;99.90;;;;;;6207854;28;20036;-82
2021/12/20 09:47:44;;;;;;;9.65;7.85;;;7.40;99.90;;;;;;6189019;28;20037;-82
2021/12/20 09:50:45;;;;;;;11.20;7.40;;;5.50;99.90;;;;;;6204859;28;20026;-82
2021/12/20 09:53:45;;;;;;;10.95;8.32;;;6.20;99.90;;;;;;6217033;28;20029;-82
2021/12/20 09:56:46;;;;;;;10.85;7.97;;;6.40;99.90;;;;;;6222383;28;20038;-82
2021/12/20 09:59:47;;;;;;;11.10;7.22;;;6.40;99.90;;;;;;6188382;28;20053;-82
2021/12/20 10:02:47;;;;;;;10.90;8.00;;;6.50;99.90;;;;;;6204796;28;20041;-82
2021/12/20 10:05:48;;;;;;;9.55;7.45;;;6.90;99.90;;;;;;6189349;28;20025;-82
2021/12/20 10:08:53;;;;;;;9.60;7.25;;;9.00;99.90;;;;;;6215345;28;20080;-82
2021/12/20 10:12:24;;;;;;;10.27;8.15;;;7.30;99.90;;;;;;6205082;28;20568;-83
2021/12/20 10:15:25;;;;;;;10.15;8.02;;;7.40;99.90;;;;;;6203155;28;20040;-83
2021/12/20 10:18:26;;;;;;;42.88;34.28;;;7.90;99.90;;;;;;6194036;28;20025;-83
2021/12/20 10:21:40;;;;;;;18.15;12.82;;;8.50;99.90;;;;;;6211462;28;20037;-83
2021/12/20 10:24:41;;;;;;;17.88;13.88;;;8.60;99.90;;;;;;6227436;28;20034;-82
2021/12/20 10:27:41;;;;;;;11.15;7.68;;;8.80;99.90;;;;;;6227555;28;20092;-83
2021/12/20 10:30:46;;;;;;;9.75;8.30;;;8.60;99.90;;;;;;6208982;28;20057;-82
2021/12/20 10:34:01;;;;;;;8.93;7.60;;;9.00;99.10;;;;;;6187199;28;20163;-82
2021/12/20 10:37:03;;;;;;;11.25;7.03;;;9.10;99.90;;;;;;6233389;28;20384;-82
2021/12/20 10:40:04;;;;;;;9.40;7.70;;;9.30;99.90;;;;;;6218801;28;20123;-83
2021/12/20 10:43:06;;;;;;;9.50;8.02;;;9.20;99.20;;;;;;6228100;28;20045;-83
2021/12/20 10:46:19;;;;;;;10.25;7.70;;;10.40;99.90;;;;;;6219084;28;20029;-83
2021/12/20 10:49:24;;;;;;;8.45;6.97;;;10.80;99.90;;;;;;6235962;28;20106;-83
2021/12/20 10:52:27;;;;;;;9.70;6.80;;;10.60;99.90;;;;;;6208407;28;20033;-83
2021/12/20 10:55:41;;;;;;;8.68;7.10;;;10.30;99.90;;;;;;6200615;28;20025;-83
2021/12/20 10:58:41;;;;;;;9.65;6.90;;;9.90;96.60;;;;;;6234712;28;20434;-83
2021/12/20 11:05:20;;;;;;;8.82;6.82;;;9.60;96.40;;;;;;6239716;28;20037;-83
2021/12/20 11:11:51;;;;;;;9.73;6.47;;;9.50;99.90;;;;;;6239711;28;20123;-84
2021/12/20 11:14:55;;;;;;;8.85;6.75;;;9.50;99.90;;;;;;6199510;28;20056;-83
2021/12/20 11:17:56;;;;;;;8.50;6.43;;;;;;;;;;6202003;28;20433;-83
2021/12/20 11:21:13;;;;;;;8.60;6.25;;;8.40;95.30;;;;;;6225504;28;20041;-84
2021/12/20 11:24:15;;;;;;;7.75;6.03;;;8.80;99.10;;;;;;6215315;28;20448;-83
2021/12/20 11:27:20;;;;;;;;;;;9.30;95.80;;;;;;6218203;28;20073;-83
2021/12/20 11:30:22;;;;;;;7.10;6.40;;;9.50;98.30;;;;;;6233948;28;19909;-83
2021/12/20 11:33:23;;;;;;;7.55;5.93;;;9.40;94.80;;;;;;6217527;28;20453;-83
2021/12/20 11:36:24;;;;;;;8.45;6.13;;;9.50;94.70;;;;;;6217307;28;20052;-83
2021/12/20 11:39:25;;;;;;;6.63;5.35;;;9.50;95.70;;;;;;6217672;28;20486;-84
2021/12/20 11:42:25;;;;;;;8.30;6.47;;;9.40;95.20;;;;;;6211914;28;20115;-83
2021/12/20 11:45:27;;;;;;;7.03;5.75;;;9.10;95.40;;;;;;6194706;28;20021;-86
2021/12/20 11:48:28;;;;;;;7.53;5.87;;;9.00;97.10;;;;;;6217889;28;20025;-82
2021/12/20 11:51:28;;;;;;;9.90;5.80;;;8.80;97.50;;;;;;6213350;28;20056;-82
2021/12/20 11:54:40;;;;;;;7.03;6.03;;;8.90;98.90;;;;;;6209169;28;20026;-81
2021/12/20 11:57:50;;;;;;;7.15;6.45;;;8.80;97.60;;;;;;6225891;28;20550;-82
2021/12/20 12:01:02;;;;;;;9.63;6.55;;;8.50;98.50;;;;;;6215319;28;20021;-82
2021/12/20 12:04:04;;;;;;;8.55;6.28;;;8.40;99.20;;;;;;6214497;28;20030;-82
2021/12/20 12:07:25;;;;;;;8.45;5.90;;;8.20;99.50;;;;;;6193108;28;20053;-82
2021/12/20 12:10:29;;;;;;;9.23;6.07;;;8.20;99.90;;;;;;6225254;28;20060;-82
2021/12/20 12:13:35;;;;;;;7.50;6.20;;;8.10;99.90;;;;;;6226419;28;20089;-81
2021/12/20 12:16:55;;;;;;;7.05;5.60;;;8.00;99.90;;;;;;6210619;28;20021;-81
2021/12/20 12:19:56;;;;;;;8.90;6.40;;;8.00;99.90;;;;;;6244955;28;20030;-82
2021/12/20 12:26:50;;;;;;;20.35;15.10;;;10.50;99.90;;;;;;6141850;28;20060;-83
2021/12/20 12:30:12;;;;;;;8.10;6.57;;;7.60;99.90;;;;;;6233426;28;20025;-83
2021/12/20 12:33:13;;;;;;;7.63;6.15;;;7.80;99.90;;;;;;6256119;28;20038;-84
2021/12/20 12:36:32;;;;;;;9.20;6.90;;;7.70;99.90;;;;;;6257885;28;20187;-83
2021/12/20 12:39:32;;;;;;;8.55;6.50;;;8.10;99.90;;;;;;6223145;28;20037;-83
2021/12/20 12:42:49;;;;;;;7.03;6.20;;;7.80;99.90;;;;;;6200075;28;20479;-83
2021/12/20 12:45:54;;;;;;;8.85;6.55;;;7.80;99.90;;;;;;6233513;28;20037;-83
2021/12/20 12:48:55;;;;;;;8.68;6.25;;;7.60;99.90;;;;;;6218085;28;20112;-84
2021/12/20 12:51:59;;;;;;;9.27;7.18;;;7.70;99.90;;;;;;6206954;28;20039;-82
2021/12/20 12:55:04;;;;;;;8.73;7.07;;;8.10;99.90;;;;;;6229143;28;20119;-82
2021/12/20 12:58:19;;;;;;;11.23;7.97;;;7.60;99.90;;;;;;6212100;28;20026;-82
2021/12/20 13:01:29;;;;;;;9.38;6.68;;;7.50;99.90;;;;;;6221439;28;20131;-87
2021/12/20 13:04:46;;;;;;;7.38;6.53;;;7.50;99.90;;;;;;6198797;28;20033;-82
2021/12/20 13:07:59;;;;;;;9.60;7.68;;;7.70;99.90;;;;;;6216925;28;20037;-84
2021/12/20 13:11:00;;;;;;;11.50;8.32;;;7.50;99.90;;;;;;6232165;28;20033;-81
2021/12/20 13:14:14;;;;;;;10.73;7.75;;;7.60;99.90;;;;;;6213716;28;20057;-81
2021/12/20 13:17:27;;;;;;;10.95;7.82;;;7.50;99.90;;;;;;6214675;28;20049;-81
2021/12/20 13:20:50;;;;;;;;;;;8.60;99.90;;;;;;6199272;28;20033;-81
2021/12/20 13:23:51;;;;;;;9.52;7.55;;;7.30;99.90;;;;;;6234878;28;20385;-81
2021/12/20 13:26:51;;;;;;;14.27;7.68;;;7.30;99.90;;;;;;6198555;28;20026;-84
2021/12/20 13:29:52;;;;;;;11.95;8.20;;;7.20;99.90;;;;;;6227842;28;20067;-82
2021/12/20 13:32:56;;;;;;;13.98;8.27;;;7.20;99.90;;;;;;6203187;28;20029;-85
2021/12/20 13:35:59;;;;;;;12.23;8.65;;;6.90;99.90;;;;;;6190286;28;20061;-84
2021/12/20 13:39:03;;;;;;;13.77;8.60;;;6.90;99.90;;;;;;6221902;28;20455;-87
2021/12/20 13:42:15;;;;;;;11.57;8.15;;;6.90;99.90;;;;;;6192831;28;20061;-85
2021/12/20 13:45:16;;;;;;;;;;;6.80;99.90;;;;;;6210426;28;20040;-83
2021/12/20 13:48:17;;;;;;;12.02;8.50;;;;;;;;;;6219124;28;19905;-86
2021/12/20 13:51:18;;;;;;;10.27;8.13;;;6.80;99.90;;;;;;6222909;28;20033;-84
2021/12/20 13:54:28;;;;;;;10.88;8.27;;;6.60;99.90;;;;;;6207244;28;20029;-87
2021/12/20 13:57:29;;;;;;;11.20;9.05;;;6.90;99.90;;;;;;6234486;28;20040;-83
2021/12/20 14:00:29;;;;;;;10.95;8.23;;;6.60;99.90;;;;;;6209198;28;20038;-85
2021/12/20 14:03:30;;;;;;;11.38;8.52;;;6.50;99.90;;;;;;6224704;28;20175;-83
2021/12/20 14:06:41;;;;;;;14.18;9.48;;;6.70;99.90;;;;;;6210924;28;20029;-83
2021/12/20 14:10:08;;;;;;;11.27;8.68;;;6.30;99.90;;;;;;6207332;28;20057;-84
2021/12/20 14:13:11;;;;;;;10.98;7.95;;;6.20;99.90;;;;;;6211661;28;20074;-83
2021/12/20 14:16:12;;;;;;;13.55;9.10;;;6.20;99.90;;;;;;6223145;28;20813;-85
2021/12/20 14:19:13;;;;;;;12.40;8.32;;;6.30;99.90;;;;;;6223841;28;20029;-82
2021/12/20 14:22:13;;;;;;;13.68;8.25;;;6.60;99.90;;;;;;6220104;28;20475;-82
2021/12/20 14:25:14;;;;;;;18.63;10.30;;;7.30;99.90;;;;;;6187977;28;20083;-85
2021/12/20 14:28:16;;;;;;;12.90;8.60;;;5.70;99.90;;;;;;6196842;28;20029;-84
2021/12/20 14:31:34;;;;;;;13.90;9.73;;;5.70;99.90;;;;;;6217796;28;20029;-86
2021/12/20 14:34:35;;;;;;;11.57;8.43;;;5.70;99.90;;;;;;6205569;28;20472;-83
2021/12/20 14:37:36;;;;;;;10.23;7.32;;;5.50;99.90;;;;;;6197541;28;20096;-85
2021/12/20 14:40:49;;;;;;;10.05;7.70;;;6.30;99.90;;;;;;6197035;28;20384;-83
2021/12/20 14:43:50;;;;;;;8.30;5.97;;;5.40;99.90;;;;;;6226901;28;20033;-81
2021/12/20 14:47:05;;;;;;;9.00;6.97;;;5.40;99.90;;;;;;6210250;28;20096;-82
2021/12/20 14:50:24;;;;;;;11.90;5.82;;;5.70;99.90;;;;;;6194121;28;20062;-83
2021/12/20 14:53:26;;;;;;;8.95;6.43;;;5.20;99.90;;;;;;6207829;28;20026;-82
2021/12/20 14:56:29;;;;;;;9.00;6.67;;;6.40;99.90;;;;;;6213089;28;20022;-82
2021/12/20 14:59:31;;;;;;;10.98;7.25;;;5.20;99.90;;;;;;6211270;28;20307;-82
2021/12/20 15:02:37;;;;;;;9.73;7.13;;;5.70;99.90;;;;;;6205683;28;20095;-81
2021/12/20 15:05:38;;;;;;;8.60;6.90;;;5.00;99.90;;;;;;6204001;28;20022;-82
2021/12/20 15:08:38;;;;;;;8.88;6.72;;;5.50;99.90;;;;;;6203565;28;20392;-82
2021/12/20 15:11:39;;;;;;;8.38;6.40;;;5.30;99.90;;;;;;6203046;28;20034;-83
2021/12/20 15:14:40;;;;;;;9.30;6.93;;;5.10;99.90;;;;;;6219122;28;20412;-82
2021/12/20 15:17:41;;;;;;;9.98;7.00;;;4.30;99.90;;;;;;6203044;28;20025;-81
2021/12/20 15:20:41;;;;;;;9.43;6.00;;;4.00;99.90;;;;;;6210468;28;20060;-82
2021/12/20 15:23:42;;;;;;;10.05;7.45;;;3.70;99.90;;;;;;6226617;28;20057;-82
2021/12/20 15:26:42;;;;;;;11.30;7.80;;;3.90;99.90;;;;;;6209178;28;20087;-82
2021/12/20 15:29:43;;;;;;;12.15;7.53;;;3.80;99.90;;;;;;6221530;28;20114;-83
2021/12/20 15:32:45;;;;;;;10.85;7.30;;;3.40;99.90;;;;;;6186421;28;20107;-82
2021/12/20 15:35:46;;;;;;;14.77;7.70;;;;;;;;;;6208505;28;20557;-82
2021/12/20 15:38:47;;;;;;;10.98;6.40;;;3.50;99.90;;;;;;6226097;28;20160;-83
2021/12/20 15:41:56;;;;;;;10.93;6.55;;;;;;;;;;6206038;28;20045;-82
2021/12/20 15:44:57;;;;;;;7.78;6.15;;;3.10;99.90;;;;;;6226685;28;20021;-83
2021/12/20 15:47:58;;;;;;;11.73;8.25;;;2.80;99.90;;;;;;6209018;28;20025;-83
2021/12/20 15:50:59;;;;;;;19.92;13.13;;;;;;;;;;6215326;28;20104;-83
2021/12/20 15:54:00;;;;;;;11.77;8.13;;;3.10;99.90;;;;;;6219749;28;20101;-83
2021/12/20 15:57:01;;;;;;;11.13;7.25;;;;;;;;;;6204286;28;20037;-81
2021/12/20 16:00:03;;;;;;;11.32;8.65;;;2.60;99.90;;;;;;6218543;28;20041;-82
2021/12/20 16:03:04;;;;;;;12.18;8.93;;;;;;;;;;6185909;28;20190;-81
2021/12/20 16:06:05;;;;;;;16.52;10.55;;;;;;;;;;6237871;28;20511;-82
2021/12/20 16:09:05;;;;;;;17.70;11.18;;;2.80;99.90;;;;;;6225442;28;20021;-82
2021/12/20 16:12:07;;;;;;;16.45;10.75;;;2.60;99.90;;;;;;6206862;28;20030;-83
2021/12/20 16:15:08;;;;;;;14.57;9.35;;;2.70;99.90;;;;;;6184847;28;20037;-82
2021/12/20 16:18:09;;;;;;;11.90;8.48;;;;;;;;;;6202612;28;20034;-85
2021/12/20 16:21:10;;;;;;;11.00;7.95;;;2.50;99.90;;;;;;6203253;28;20117;-83
2021/12/20 16:24:11;;;;;;;11.00;8.02;;;;;;;;;;6204236;28;20029;-84
2021/12/20 16:27:11;;;;;;;12.85;7.80;;;2.40;99.90;;;;;;6220266;28;20843;-85
2021/12/20 16:30:16;;;;;;;14.18;8.10;;;2.20;99.90;;;;;;6185202;28;20045;-85
2021/12/20 16:33:17;;;;;;;12.15;7.30;;;;;;;;;;6188249;28;20032;-84
2021/12/20 16:36:18;;;;;;;14.90;8.98;;;2.00;99.90;;;;;;6211636;28;20050;-84
2021/12/20 16:39:19;;;;;;;11.68;7.43;;;;;;;;;;6211745;28;20784;-83
2021/12/20 16:42:20;;;;;;;10.73;7.13;;;;;;;;;;6230037;28;20132;-82
2021/12/20 16:45:31;;;;;;;13.85;8.30;;;2.10;99.90;;;;;;6220030;28;20056;-82
2021/12/20 16:48:34;;;;;;;10.57;8.43;;;1.90;99.90;;;;;;6198582;28;20493;-83
2021/12/20 16:51:35;;;;;;;10.23;7.72;;;2.10;99.90;;;;;;6212329;28;20044;-85
2021/12/20 16:54:36;;;;;;;11.70;8.35;;;;;;;;;;6208567;28;20022;-84
2021/12/20 16:57:37;;;;;;;10.60;7.00;;;;;;;;;;6212502;28;20022;-81
2021/12/20 17:00:39;;;;;;;12.02;7.30;;;1.90;99.90;;;;;;6227696;28;20137;-83
2021/12/20 17:04:00;;;;;;;15.73;9.50;;;;;;;;;;6206337;28;20045;-88